Time;durP1;ratioP1;P1;durP2;ratioP2;P2;SDS_P1;SDS_P2;PMS_P1;PMS_P2;Temp;Humidity;BMP_temperature;BMP_pressure;BME280_temperature;BME280_humidity;BME280_pressure;Samples;Min_cycle;Max_cycle;Signal;HPM_P1;HPM_P2
2023/10/21 00:01:05;;;;;;;;;;;15.90;88.20;;;;;;4135882;28;20064;-57
2023/10/21 00:03:46;;;;;;;;;;;15.90;87.70;;;;;;4133827;28;19968;-57
2023/10/21 00:06:27;;;;;;;;;;;15.80;87.70;;;;;;4133677;28;19947;-57
2023/10/21 00:09:09;;;;;;;;;;;15.90;87.70;;;;;;4138462;28;19944;-56
2023/10/21 00:11:51;;;;;;;;;;;16.00;87.50;;;;;;4151258;28;20005;-56
2023/10/21 00:14:34;;;;;;;;;;;16.00;87.30;;;;;;4150005;28;19936;-57
2023/10/21 00:17:15;;;;;;;;;;;16.00;87.30;;;;;;4151051;28;19974;-55
2023/10/21 00:19:56;;;;;;;;;;;16.00;87.30;;;;;;4150653;28;19935;-56
2023/10/21 00:22:37;;;;;;;;;;;16.00;87.50;;;;;;4151277;28;19955;-56
2023/10/21 00:25:18;;;;;;;;;;;15.90;87.70;;;;;;4138972;28;19937;-57
2023/10/21 00:27:59;;;;;;;;;;;15.90;88.00;;;;;;4152288;28;19994;-57
2023/10/21 00:30:45;;;;;;;;;;;16.00;87.90;;;;;;4136647;28;20348;-56
2023/10/21 00:33:26;;;;;;;;;;;16.00;88.70;;;;;;4149583;28;20385;-57
2023/10/21 00:36:08;;;;;;;;;;;16.00;87.80;;;;;;4152061;28;19982;-56
2023/10/21 00:38:49;;;;;;;;;;;16.00;88.00;;;;;;4154011;28;20404;-57
2023/10/21 00:41:30;;;;;;;;;;;16.00;87.80;;;;;;4138306;28;19964;-57
2023/10/21 00:44:10;;;;;;;;;;;16.00;87.60;;;;;;4147235;28;19976;-57
2023/10/21 00:46:54;;;;;;;;;;;16.10;87.60;;;;;;4150840;28;19932;-57
2023/10/21 00:49:35;;;;;;;;;;;16.10;87.60;;;;;;4152341;28;20428;-57
2023/10/21 00:52:17;;;;;;;;;;;16.00;87.70;;;;;;4153929;28;19936;-56
2023/10/21 00:54:59;;;;;;;;;;;16.00;87.80;;;;;;4153986;28;19936;-56
2023/10/21 00:57:41;;;;;;;;;;;16.10;87.90;;;;;;4154113;28;19932;-57
2023/10/21 01:00:23;;;;;;;;;;;16.10;87.80;;;;;;4154582;28;19931;-57
2023/10/21 01:03:05;;;;;;;;;;;16.10;87.90;;;;;;4152456;28;19978;-56
2023/10/21 01:05:47;;;;;;;;;;;16.10;87.90;;;;;;4154432;28;19936;-57
2023/10/21 01:08:28;;;;;;;;;;;16.10;87.80;;;;;;4141559;28;19933;-57
2023/10/21 01:11:08;;;;;;;;;;;16.10;87.70;;;;;;4141788;28;20290;-57
2023/10/21 01:13:51;;;;;;;;;;;16.10;87.70;;;;;;4120381;28;19936;-57
2023/10/21 01:16:32;;;;;;;;;;;16.10;87.60;;;;;;4137561;28;19931;-57
2023/10/21 01:19:15;;;;;;;;;;;16.10;87.80;;;;;;4143629;28;19932;-57
2023/10/21 01:21:56;;;;;;;;;;;16.10;87.80;;;;;;4148610;28;19936;-57
2023/10/21 01:24:39;;;;;;;;;;;16.20;87.70;;;;;;4137039;28;19936;-57
2023/10/21 01:27:20;;;;;;;;;;;16.20;87.50;;;;;;4137848;28;20080;-57
2023/10/21 01:30:01;;;;;;;;;;;16.20;87.40;;;;;;4147657;28;19936;-57
2023/10/21 01:32:42;;;;;;;;;;;16.20;87.30;;;;;;4153613;28;19936;-56
2023/10/21 01:35:23;;;;;;;;;;;16.20;87.30;;;;;;4153387;28;20460;-57
2023/10/21 01:38:04;;;;;;;;;;;16.20;87.50;;;;;;4135214;28;20290;-57
2023/10/21 01:40:47;;;;;;;;;;;16.10;87.70;;;;;;4135022;28;19932;-57
2023/10/21 01:43:28;;;;;;;;;;;16.10;88.00;;;;;;4138491;28;20407;-57
2023/10/21 01:46:09;;;;;;;;;;;16.10;88.10;;;;;;4153642;28;19932;-57
2023/10/21 01:48:50;;;;;;;;;;;16.10;87.90;;;;;;4134056;28;19964;-58
2023/10/21 01:51:32;;;;;;;;;;;16.10;87.80;;;;;;4132287;28;19933;-48
2023/10/21 01:54:13;;;;;;;;;;;16.20;87.80;;;;;;4136703;28;19945;-50
2023/10/21 01:56:56;;;;;;;;;;;16.10;87.80;;;;;;4142434;28;20344;-48
2023/10/21 01:59:38;;;;;;;;;;;16.20;87.90;;;;;;4150720;28;20071;-50
2023/10/21 02:02:19;;;;;;;;;;;16.20;87.70;;;;;;4163245;28;20063;-48
2023/10/21 02:05:00;;;;;;;;;;;16.20;87.60;;;;;;4151732;28;19933;-50
2023/10/21 02:07:41;;;;;;;;;;;16.30;87.60;;;;;;4153479;28;19932;-49
2023/10/21 02:10:25;;;;;;;;;;;16.20;87.50;;;;;;4136829;28;20302;-49
2023/10/21 02:13:07;;;;;;;;;;;16.30;88.50;;;;;;4114290;28;20044;-50
2023/10/21 02:15:50;;;;;;;;;;;16.30;87.50;;;;;;4152043;28;20416;-49
2023/10/21 02:18:31;;;;;;;;;;;16.30;87.50;;;;;;4151967;28;20014;-49
2023/10/21 02:21:12;;;;;;;;;;;16.30;87.60;;;;;;4152297;28;20400;-50
2023/10/21 02:23:53;;;;;;;;;;;16.30;87.60;;;;;;4152036;28;19936;-52
2023/10/21 02:26:34;;;;;;;;;;;16.30;87.40;;;;;;4152735;28;19933;-51
2023/10/21 02:29:17;;;;;;;;;;;16.30;87.10;;;;;;4137088;28;19952;-49
2023/10/21 02:31:57;;;;;;;;;;;16.40;87.10;;;;;;4150631;28;19940;-50
2023/10/21 02:34:39;;;;;;;;;;;16.40;87.00;;;;;;4144370;28;19932;-49
2023/10/21 02:37:20;;;;;;;;;;;16.40;86.90;;;;;;4155940;28;19971;-49
2023/10/21 02:40:03;;;;;;;;;;;16.30;87.10;;;;;;4150895;28;20512;-49
2023/10/21 02:42:45;;;;;;;;;;;16.30;87.40;;;;;;4153128;28;19932;-52
2023/10/21 02:45:28;;;;;;;;;;;16.20;87.50;;;;;;4151914;28;19982;-48
2023/10/21 02:48:09;;;;;;;;;;;16.10;87.80;;;;;;4161850;28;19986;-51
2023/10/21 02:50:50;;;;;;;;;;;16.10;89.10;;;;;;4136028;28;20651;-48
2023/10/21 02:53:31;;;;;;;;;;;16.10;89.30;;;;;;4130877;28;19936;-48
2023/10/21 02:56:13;;;;;;;;;;;16.10;88.10;;;;;;4136249;28;20060;-48
2023/10/21 02:58:54;;;;;;;;;;;16.20;87.90;;;;;;4133295;28;20332;-49
2023/10/21 03:01:36;;;;;;;;;;;16.30;87.70;;;;;;4135372;28;20405;-49
2023/10/21 03:04:17;;;;;;;;;;;16.30;87.60;;;;;;4129213;28;19933;-47
2023/10/21 03:06:59;;;;;;;;;;;16.30;87.40;;;;;;4134466;28;20014;-50
2023/10/21 03:09:40;;;;;;;;;;;16.40;87.30;;;;;;4135458;28;19956;-50
2023/10/21 03:12:21;;;;;;;;;;;16.40;87.20;;;;;;4143439;28;19936;-49
2023/10/21 03:15:03;;;;;;;;;;;16.40;88.10;;;;;;4149991;28;19963;-52
2023/10/21 03:17:46;;;;;;;;;;;16.30;87.30;;;;;;4160009;28;20178;-49
2023/10/21 03:20:27;;;;;;;;;;;16.30;87.50;;;;;;4133720;28;20466;-51
2023/10/21 03:23:08;;;;;;;;;;;16.30;88.50;;;;;;4133590;28;20413;-49
2023/10/21 03:25:54;;;;;;;;;;;16.40;87.60;;;;;;4135821;28;19933;-49
2023/10/21 03:28:36;;;;;;;;;;;16.40;87.40;;;;;;4115413;28;19933;-49
2023/10/21 03:31:19;;;;;;;;;;;16.40;87.20;;;;;;4120501;28;19932;-53
2023/10/21 03:34:01;;;;;;;;;;;16.40;87.10;;;;;;4119954;28;19937;-51
2023/10/21 03:36:45;;;;;;;;;;;16.40;87.10;;;;;;4117853;28;19937;-50
2023/10/21 03:39:26;;;;;;;;;;;16.40;87.40;;;;;;4120918;28;19933;-48
2023/10/21 03:42:07;;;;;;;;;;;16.40;87.50;;;;;;4115091;28;19941;-50
2023/10/21 03:44:49;;;;;;;;;;;16.40;87.70;;;;;;4128416;28;19944;-49
2023/10/21 03:47:31;;;;;;;;;;;16.40;87.80;;;;;;4149154;28;19935;-50
2023/10/21 03:50:14;;;;;;;;;;;16.30;87.90;;;;;;4149800;28;20689;-49
2023/10/21 03:52:55;;;;;;;;;;;16.30;88.20;;;;;;4149357;28;20300;-58
2023/10/21 03:55:36;;;;;;;;;;;16.30;88.20;;;;;;4153262;28;20443;-57
2023/10/21 03:58:17;;;;;;;;;;;16.40;87.90;;;;;;4154011;28;19994;-56
2023/10/21 04:00:58;;;;;;;;;;;16.40;87.60;;;;;;4147290;28;19932;-58
2023/10/21 04:03:39;;;;;;;;;;;16.50;87.50;;;;;;4154998;28;20029;-57
2023/10/21 04:06:22;;;;;;;;;;;16.50;88.40;;;;;;4153998;28;19991;-57
2023/10/21 04:09:02;;;;;;;;;;;16.50;87.60;;;;;;4140252;28;19932;-57
2023/10/21 04:11:43;;;;;;;;;;;16.50;87.50;;;;;;4153121;28;19936;-55
2023/10/21 04:14:25;;;;;;;;;;;16.50;88.10;;;;;;4154150;28;19967;-57
2023/10/21 04:17:06;;;;;;;;;;;16.60;87.20;;;;;;4154334;28;19947;-57
2023/10/21 04:19:47;;;;;;;;;;;16.50;87.00;;;;;;4155112;28;19932;-56
2023/10/21 04:22:30;;;;;;;;;;;16.50;87.00;;;;;;4153431;28;19935;-58
2023/10/21 04:25:11;;;;;;;;;;;16.50;87.20;;;;;;4154643;28;19963;-57
2023/10/21 04:27:51;;;;;;;;;;;16.50;87.50;;;;;;4152091;28;19931;-58
2023/10/21 04:30:32;;;;;;;;;;;16.40;87.60;;;;;;4140332;28;19936;-62
2023/10/21 04:33:13;;;;;;;;;;;16.40;88.10;;;;;;4147027;28;20006;-57
2023/10/21 04:35:54;;;;;;;;;;;16.30;88.00;;;;;;4154584;28;19932;-58
2023/10/21 04:38:36;;;;;;;;;;;16.40;87.80;;;;;;4152602;28;20489;-58
2023/10/21 04:41:18;;;;;;;;;;;16.40;87.50;;;;;;4152707;28;20416;-57
2023/10/21 04:43:58;;;;;;;;;;;16.50;87.50;;;;;;4139635;28;20012;-57
2023/10/21 04:46:40;;;;;;;;;;;16.50;87.40;;;;;;4134578;28;20393;-57
2023/10/21 04:49:21;;;;;;;;;;;16.40;87.40;;;;;;4136465;28;20389;-59
2023/10/21 04:52:02;;;;;;;;;;;16.40;87.80;;;;;;4152883;28;19936;-57
2023/10/21 04:54:45;;;;;;;;;;;16.40;87.70;;;;;;4144633;28;19933;-56
2023/10/21 04:57:26;;;;;;;;;;;16.30;88.00;;;;;;4162025;28;20297;-57
2023/10/21 05:00:08;;;;;;;;;;;16.40;88.20;;;;;;4136949;28;20337;-56
2023/10/21 05:02:49;;;;;;;;;;;16.40;87.90;;;;;;4138070;28;19936;-58
2023/10/21 05:05:30;;;;;;;;;;;16.50;87.50;;;;;;4124676;28;19936;-57
2023/10/21 05:08:11;;;;;;;;;;;16.50;87.30;;;;;;4137365;28;19932;-56
2023/10/21 05:10:55;;;;;;;;;;;16.50;87.10;;;;;;4152588;28;19932;-55
2023/10/21 05:13:36;;;;;;;;;;;16.50;87.10;;;;;;4131048;28;19935;-56
2023/10/21 05:16:17;;;;;;;;;;;16.50;87.10;;;;;;4138498;28;19936;-58
2023/10/21 05:18:58;;;;;;;;;;;16.40;87.20;;;;;;4148565;28;20108;-57
2023/10/21 05:21:40;;;;;;;;;;;16.40;87.60;;;;;;4151371;28;19979;-60
2023/10/21 05:24:21;;;;;;;;;;;16.40;87.80;;;;;;4151816;28;19932;-56
2023/10/21 05:27:03;;;;;;;;;;;16.40;87.80;;;;;;4144344;28;19932;-57
2023/10/21 05:29:46;;;;;;;;;;;16.40;87.70;;;;;;4151008;28;19936;-49
2023/10/21 05:32:27;;;;;;;;;;;16.40;87.60;;;;;;4153059;28;19932;-47
2023/10/21 05:35:09;;;;;;;;;;;16.40;88.60;;;;;;4152859;28;19936;-50
2023/10/21 05:37:50;;;;;;;;;;;16.50;87.60;;;;;;4152652;28;19966;-48
2023/10/21 05:40:31;;;;;;;;;;;16.50;87.50;;;;;;4153415;28;20313;-51
2023/10/21 05:43:14;;;;;;;;;;;16.50;87.80;;;;;;4151961;28;19935;-50
2023/10/21 05:45:55;;;;;;;;;;;16.50;88.20;;;;;;4151373;28;19932;-49
2023/10/21 05:48:36;;;;;;;;;;;16.50;87.90;;;;;;4135822;28;20067;-48
2023/10/21 05:51:17;;;;;;;;;;;16.60;88.50;;;;;;4143640;28;19944;-49
2023/10/21 05:53:59;;;;;;;;;;;16.60;87.60;;;;;;4149601;28;20400;-48
2023/10/21 05:56:40;;;;;;;;;;;16.60;87.60;;;;;;4159707;28;19975;-47
2023/10/21 05:59:22;;;;;;;;;;;16.50;87.50;;;;;;4146623;28;19970;-48
2023/10/21 06:02:03;;;;;;;;;;;16.50;87.70;;;;;;4153267;28;20010;-49
2023/10/21 06:04:44;;;;;;;;;;;16.40;87.90;;;;;;4137142;28;20060;-51
2023/10/21 06:07:25;;;;;;;;;;;16.40;88.20;;;;;;4144100;28;19975;-50
2023/10/21 06:10:10;;;;;;;;;;;16.50;88.30;;;;;;4139359;28;19932;-47
2023/10/21 06:12:54;;;;;;;;;;;16.50;88.20;;;;;;4161037;28;19968;-49
2023/10/21 06:15:38;;;;;;;;;;;16.50;89.00;;;;;;4148708;28;19948;-48
2023/10/21 06:18:19;;;;;;;;;;;16.50;88.10;;;;;;4135396;28;19940;-46
2023/10/21 06:21:00;;;;;;;;;;;16.50;89.00;;;;;;4136792;28;19974;-58
2023/10/21 06:23:42;;;;;;;;;;;16.50;88.30;;;;;;4125166;28;19958;-57
2023/10/21 06:26:23;;;;;;;;;;;16.60;88.10;;;;;;4134219;28;20084;-58
2023/10/21 06:29:09;;;;;;;;;;;16.60;88.00;;;;;;4116658;28;20015;-53
2023/10/21 06:31:52;;;;;;;;;;;16.60;87.90;;;;;;4137998;28;20359;-55
2023/10/21 06:34:34;;;;;;;;;;;16.60;87.90;;;;;;4144842;28;19963;-55
2023/10/21 06:37:16;;;;;;;;;;;16.70;87.60;;;;;;4134345;28;19936;-55
2023/10/21 06:39:57;;;;;;;;;;;16.70;87.50;;;;;;4133282;28;19952;-52
2023/10/21 06:42:38;;;;;;;;;;;16.70;87.40;;;;;;4127998;28;19941;-51
2023/10/21 06:45:20;;;;;;;;;;;16.80;87.20;;;;;;4143648;28;19936;-54
2023/10/21 06:48:04;;;;;;;;;;;16.80;87.10;;;;;;4135360;28;19936;-54
2023/10/21 06:50:45;;;;;;;;;;;16.80;86.80;;;;;;4145039;28;19951;-53
2023/10/21 06:53:27;;;;;;;;;;;16.80;86.80;;;;;;4148930;28;19936;-54
2023/10/21 06:56:10;;;;;;;;;;;16.80;86.90;;;;;;4152636;28;19999;-55
2023/10/21 06:58:52;;;;;;;;;;;16.80;86.90;;;;;;4111442;28;19932;-54
2023/10/21 07:01:34;;;;;;;;;;;16.80;86.80;;;;;;4153929;28;19936;-51
2023/10/21 07:04:18;;;;;;;;;;;16.70;86.80;;;;;;4149930;28;20462;-52
2023/10/21 07:06:59;;;;;;;;;;;16.70;86.90;;;;;;4141834;28;20400;-54
2023/10/21 07:09:40;;;;;;;;;;;16.70;87.80;;;;;;4150405;28;19932;-53
2023/10/21 07:12:21;;;;;;;;;;;16.80;86.90;;;;;;4147285;28;19932;-54
2023/10/21 07:15:04;;;;;;;;;;;16.80;86.70;;;;;;4147333;28;19932;-54
2023/10/21 07:17:48;;;;;;;;;;;16.80;86.80;;;;;;4148870;28;19932;-54
2023/10/21 07:20:30;;;;;;;;;;;16.80;86.80;;;;;;4150368;28;19932;-54
2023/10/21 07:23:14;;;;;;;;;;;16.70;86.80;;;;;;4142977;28;19937;-52
2023/10/21 07:25:55;;;;;;;;;;;16.70;87.10;;;;;;4141996;28;20408;-55
2023/10/21 07:28:36;;;;;;;;;;;16.60;87.40;;;;;;4148715;28;20119;-55
2023/10/21 07:31:17;;;;;;;;;;;16.50;88.50;;;;;;4150470;28;20289;-53
2023/10/21 07:33:58;;;;;;;;;;;16.50;87.90;;;;;;4150363;28;19952;-54
2023/10/21 07:36:40;;;;;;;;;;;16.50;87.90;;;;;;4150462;28;19980;-55
2023/10/21 07:39:22;;;;;;;;;;;16.50;87.90;;;;;;4120402;28;19948;-56
2023/10/21 07:42:06;;;;;;;;;;;16.50;88.00;;;;;;4118028;28;19937;-47
2023/10/21 07:44:48;;;;;;;;;;;16.50;88.10;;;;;;4130538;28;20064;-47
2023/10/21 07:47:29;;;;;;;;;;;16.40;88.20;;;;;;4135334;28;20602;-48
2023/10/21 07:50:13;;;;;;;;;;;16.40;88.50;;;;;;4139813;28;19964;-55
2023/10/21 07:52:56;;;;;;;;;;;16.40;88.80;;;;;;4136762;28;19932;-55
2023/10/21 07:55:37;;;;;;;;;;;16.30;89.00;;;;;;4128354;28;19952;-53
2023/10/21 07:58:18;;;;;;;;;;;16.30;89.30;;;;;;4138225;28;20301;-54
2023/10/21 08:01:00;;;;;;;;;;;16.20;89.60;;;;;;4139397;28;20026;-55
2023/10/21 08:03:41;;;;;;;;;;;16.10;89.80;;;;;;4112052;28;19936;-51
2023/10/21 08:06:22;;;;;;;;;;;16.10;90.00;;;;;;4137409;28;19936;-55
2023/10/21 08:09:08;;;;;;;;;;;16.00;90.10;;;;;;4158925;28;19932;-55
2023/10/21 08:11:49;;;;;;;;;;;16.00;90.20;;;;;;4150630;28;20002;-54
2023/10/21 08:14:31;;;;;;;;;;;15.90;90.40;;;;;;4135554;28;19937;-55
2023/10/21 08:17:13;;;;;;;;;;;15.80;90.50;;;;;;4130476;28;20417;-55
2023/10/21 08:19:54;;;;;;;;;;;15.80;90.60;;;;;;4120896;28;20049;-55
2023/10/21 08:22:35;;;;;;;;;;;15.80;91.10;;;;;;4105699;28;19979;-53
2023/10/21 08:25:17;;;;;;;;;;;15.70;90.80;;;;;;4141230;28;19941;-55
2023/10/21 08:27:58;;;;;;;;;;;15.70;91.00;;;;;;4127454;28;19932;-53
2023/10/21 08:30:39;;;;;;;;;;;15.70;91.40;;;;;;4137910;28;19936;-55
2023/10/21 08:33:20;;;;;;;;;;;15.60;91.10;;;;;;4133507;28;19937;-56
2023/10/21 08:36:01;;;;;;;;;;;15.60;91.20;;;;;;4134661;28;19932;-59
2023/10/21 08:38:42;;;;;;;;;;;15.60;91.40;;;;;;4117551;28;19960;-55
2023/10/21 08:41:24;;;;;;;;;;;15.50;91.40;;;;;;4136880;28;20341;-56
2023/10/21 08:44:06;;;;;;;;;;;15.50;91.50;;;;;;4151339;28;20356;-55
2023/10/21 08:46:49;;;;;;;;;;;15.50;91.60;;;;;;4139846;28;19936;-54
2023/10/21 08:49:33;;;;;;;;;;;15.50;91.70;;;;;;4154128;28;19932;-55
2023/10/21 08:52:15;;;;;;;;;;;15.50;91.80;;;;;;4106532;28;19933;-55
2023/10/21 08:55:00;;;;;;;;;;;15.50;91.80;;;;;;4127271;28;19932;-53
2023/10/21 08:57:42;;;;;;;;;;;15.50;91.90;;;;;;4135485;28;20018;-53
2023/10/21 09:00:24;;;;;;;;;;;15.40;92.00;;;;;;4114584;28;20766;-47
2023/10/21 09:03:05;;;;;;;;;;;15.40;92.10;;;;;;4138253;28;20301;-47
2023/10/21 09:06:03;;;;;;;;;;;15.40;92.20;;;;;;4128476;28;19940;-51
2023/10/21 09:08:45;;;;;;;;;;;15.40;92.30;;;;;;4151934;28;19935;-55
2023/10/21 09:11:27;;;;;;;;;;;15.40;92.40;;;;;;4149319;28;19932;-49
2023/10/21 09:14:10;;;;;;;;;;;15.40;92.50;;;;;;4153448;28;20486;-47
2023/10/21 09:16:56;;;;;;;;;;;15.40;92.70;;;;;;4151663;28;20004;-46
2023/10/21 09:19:42;;;;;;;;;;;15.50;93.00;;;;;;4143888;28;20083;-50
2023/10/21 09:22:25;;;;;;;;;;;15.70;92.90;;;;;;4144835;28;19932;-46
2023/10/21 09:25:10;;;;;;;;;;;15.90;92.70;;;;;;4135851;28;19975;-48
2023/10/21 09:27:53;;;;;;;;;;;16.10;92.30;;;;;;4149080;28;19932;-54
2023/10/21 09:30:36;;;;;;;;;;;16.40;91.70;;;;;;4140001;28;20551;-55
2023/10/21 09:33:18;;;;;;;;;;;16.60;91.40;;;;;;4151553;28;19932;-48
2023/10/21 09:36:00;;;;;;;;;;;16.80;91.00;;;;;;4151967;28;19952;-47
2023/10/21 09:38:50;;;;;;;;;;;16.90;90.60;;;;;;4153793;28;20075;-49
2023/10/21 09:41:34;;;;;;;;;;;17.00;90.40;;;;;;4138559;28;19935;-55
2023/10/21 09:44:19;;;;;;;;;;;17.20;90.10;;;;;;4126979;28;20014;-51
2023/10/21 09:47:19;;;;;;;;;;;17.20;90.00;;;;;;4126263;28;19935;-48
2023/10/21 09:50:12;;;;;;;;;;;17.30;89.90;;;;;;4124366;28;19933;-55
2023/10/21 09:52:56;;;;;;;;;;;17.30;89.80;;;;;;4130870;28;20460;-49
2023/10/21 09:55:39;;;;;;;;;;;17.30;90.00;;;;;;4115509;28;20024;-56
2023/10/21 09:58:22;;;;;;;;;;;17.30;89.90;;;;;;4131699;28;20107;-56
2023/10/21 10:01:07;;;;;;;;;;;17.30;89.80;;;;;;4129149;28;19932;-49
2023/10/21 10:03:55;;;;;;;;;;;17.30;89.70;;;;;;4151968;28;19936;-49
2023/10/21 10:06:38;;;;;;;;;;;17.30;90.30;;;;;;4152687;28;19935;-49
2023/10/21 10:09:22;;;;;;;;;;;17.40;89.60;;;;;;4128637;28;20329;-49
2023/10/21 10:12:07;;;;;;;;;;;17.50;89.50;;;;;;4125193;28;19936;-51
2023/10/21 10:14:48;;;;;;;;;;;17.50;89.20;;;;;;4130111;28;19983;-56
2023/10/21 10:17:44;;;;;;;;;;;17.50;89.00;;;;;;4120672;28;19936;-51
2023/10/21 10:20:27;;;;;;;;;;;17.50;89.00;;;;;;4151039;28;20377;-49
2023/10/21 10:23:08;;;;;;;;;;;17.40;89.20;;;;;;4152756;28;19974;-50
2023/10/21 10:25:51;;;;;;;;;;;17.40;89.50;;;;;;4150336;28;20377;-50
2023/10/21 10:28:32;;;;;;;;;;;17.40;89.40;;;;;;4151409;28;19936;-56
2023/10/21 10:31:15;;;;;;;;;;;17.50;90.00;;;;;;4146073;28;20012;-55
2023/10/21 10:33:56;;;;;;;;;;;17.50;89.20;;;;;;4149198;28;19932;-56
2023/10/21 10:36:39;;;;;;;;;;;17.50;89.00;;;;;;4122402;28;19936;-48
2023/10/21 10:39:37;;;;;;;;;;;17.50;89.20;;;;;;4154739;28;19936;-49
2023/10/21 10:42:24;;;;;;;;;;;17.50;89.50;;;;;;4125809;28;19932;-48
2023/10/21 10:45:08;;;;;;;;;;;17.40;89.70;;;;;;4124930;28;19937;-58
2023/10/21 10:47:56;;;;;;;;;;;17.40;90.00;;;;;;4123995;28;19933;-55
2023/10/21 10:50:37;;;;;;;;;;;17.40;90.00;;;;;;4090352;28;19999;-48
2023/10/21 10:53:39;;;;;;;;;;;17.40;90.00;;;;;;4119165;28;20087;-48
2023/10/21 10:56:22;;;;;;;;;;;17.40;90.00;;;;;;4092711;28;19936;-54
2023/10/21 10:59:05;;;;;;;;;;;17.40;90.00;;;;;;4115392;28;19933;-54
2023/10/21 11:01:56;;;;;;;;;;;17.40;90.00;;;;;;4134927;28;20290;-55
2023/10/21 11:04:41;;;;;;;;;;;17.40;90.10;;;;;;4136029;28;20488;-54
2023/10/21 11:07:21;;;;;;;;;;;17.30;90.20;;;;;;4140868;28;19936;-45
2023/10/21 11:10:06;;;;;;;;;;;17.30;90.30;;;;;;4151312;28;20068;-48
2023/10/21 11:12:50;;;;;;;;;;;17.20;90.60;;;;;;4151039;28;19951;-48
2023/10/21 11:15:31;;;;;;;;;;;17.20;90.90;;;;;;4135362;28;20064;-45
2023/10/21 11:18:16;;;;;;;;;;;17.20;91.20;;;;;;4143470;28;19936;-57
2023/10/21 11:20:58;;;;;;;;;;;17.20;91.30;;;;;;4152058;28;19935;-56
2023/10/21 11:23:39;;;;;;;;;;;17.20;91.20;;;;;;4122882;28;19936;-55
2023/10/21 11:26:22;;;;;;;;;;;17.20;91.30;;;;;;4111605;28;20333;-49
2023/10/21 11:29:05;;;;;;;;;;;17.20;91.20;;;;;;4143247;28;19936;-49
2023/10/21 11:31:46;;;;;;;;;;;17.20;91.20;;;;;;4129579;28;20412;-48
2023/10/21 11:34:30;;;;;;;;;;;17.20;91.40;;;;;;4134678;28;19933;-48
2023/10/21 11:37:12;;;;;;;;;;;17.20;91.30;;;;;;4139553;28;19955;-48
2023/10/21 11:39:55;;;;;;;;;;;17.30;91.10;;;;;;4082003;28;20329;-55
2023/10/21 11:42:39;;;;;;;;;;;17.30;91.50;;;;;;4114141;28;20061;-48
2023/10/21 11:45:22;;;;;;;;;;;17.30;90.90;;;;;;4070686;28;19937;-49
2023/10/21 11:48:08;;;;;;;;;;;17.40;90.80;;;;;;4140852;28;19935;-55
2023/10/21 11:50:55;;;;;;;;;;;17.40;90.70;;;;;;4122874;28;19940;-47
2023/10/21 11:53:38;;;;;;;;;;;17.40;90.50;;;;;;4138375;28;20011;-49
2023/10/21 12:20:48;;;;;;;;;;;17.30;90.50;;;;;;4112506;28;19941;-56
2023/10/21 12:32:53;;;;;;;;;;;17.30;90.60;;;;;;4152523;28;19932;-56
2023/10/21 12:35:53;;;;;;;;;;;17.30;90.30;;;;;;4144458;28;20301;-55
2023/10/21 12:38:39;;;;;;;;;;;17.40;90.20;;;;;;4123231;28;20679;-48
2023/10/21 12:41:26;;;;;;;;;;;17.40;90.10;;;;;;4146778;28;20459;-47
2023/10/21 12:44:13;;;;;;;;;;;17.50;90.40;;;;;;4128272;28;20368;-56
2023/10/21 12:46:57;;;;;;;;;;;17.50;89.80;;;;;;4119146;28;19933;-47
2023/10/21 12:49:43;;;;;;;;;;;17.60;89.60;;;;;;4137401;28;20022;-47
2023/10/21 12:52:26;;;;;;;;;;;17.60;89.70;;;;;;4143813;28;20705;-48
2023/10/21 12:55:16;;;;;;;;;;;17.60;89.80;;;;;;4154333;28;19936;-48
2023/10/21 12:58:00;;;;;;;;;;;17.50;90.00;;;;;;4143491;28;19948;-47
2023/10/21 13:00:43;;;;;;;;;;;17.50;90.00;;;;;;4135111;28;20075;-46
2023/10/21 13:03:25;;;;;;;;;;;17.50;90.10;;;;;;4153965;28;19982;-46
2023/10/21 13:06:08;;;;;;;;;;;17.50;90.10;;;;;;4145761;28;19936;-55
2023/10/21 13:08:50;;;;;;;;;;;17.50;90.10;;;;;;4138862;28;20026;-54
2023/10/21 13:11:34;;;;;;;;;;;17.40;90.20;;;;;;4126008;28;19933;-47
2023/10/21 13:14:15;;;;;;;;;;;17.40;90.20;;;;;;4152798;28;19936;-50
2023/10/21 13:16:58;;;;;;;;;;;17.40;90.30;;;;;;4153016;28;20286;-47
2023/10/21 13:19:38;;;;;;;;;;;17.30;90.30;;;;;;4139235;28;20078;-50
2023/10/21 13:22:21;;;;;;;;;;;17.30;90.40;;;;;;4136094;28;20051;-52
2023/10/21 13:25:07;;;;;;;;;;;17.30;90.50;;;;;;4133382;28;20455;-56
2023/10/21 13:27:57;;;;;;;;;;;17.20;90.50;;;;;;4152217;28;19936;-49
2023/10/21 13:30:38;;;;;;;;;;;17.20;90.50;;;;;;4153041;28;20679;-56
2023/10/21 13:33:19;;;;;;;;;;;17.20;90.40;;;;;;4142740;28;19936;-49
2023/10/21 13:35:59;;;;;;;;;;;17.10;90.40;;;;;;4144695;28;20312;-48
2023/10/21 13:38:41;;;;;;;;;;;17.00;90.40;;;;;;4132637;28;19932;-50
2023/10/21 13:41:22;;;;;;;;;;;17.00;90.50;;;;;;4144611;28;19951;-49
2023/10/21 13:44:05;;;;;;;;;;;17.00;90.60;;;;;;4154020;28;19933;-51
2023/10/21 13:46:46;;;;;;;;;;;16.90;90.70;;;;;;4152525;28;19944;-49
2023/10/21 13:49:29;;;;;;;;;;;16.90;90.80;;;;;;4152325;28;20310;-50
2023/10/21 13:52:11;;;;;;;;;;;16.90;91.00;;;;;;4153996;28;19932;-50
2023/10/21 13:54:53;;;;;;;;;;;16.80;91.00;;;;;;4151265;28;20405;-48
2023/10/21 13:57:34;;;;;;;;;;;16.80;91.00;;;;;;4153587;28;19936;-50
2023/10/21 14:03:24;;;;;;;;;;;16.80;91.10;;;;;;4132844;28;19983;-47
2023/10/21 14:06:06;;;;;;;;;;;16.70;91.10;;;;;;4141553;28;20309;-55
2023/10/21 14:08:52;;;;;;;;;;;16.70;91.20;;;;;;4152113;28;20052;-48
2023/10/21 14:11:36;;;;;;;;;;;16.70;91.20;;;;;;4152282;28;19936;-56
2023/10/21 14:14:18;;;;;;;;;;;16.70;91.20;;;;;;4126533;28;19933;-48
2023/10/21 14:16:59;;;;;;;;;;;16.70;91.70;;;;;;4153514;28;20006;-48
2023/10/21 14:19:40;;;;;;;;;;;16.70;91.40;;;;;;4135443;28;19986;-50
2023/10/21 14:22:20;;;;;;;;;;;16.70;91.40;;;;;;4152150;28;19936;-48
2023/10/21 14:25:01;;;;;;;;;;;16.70;91.40;;;;;;4154069;28;20293;-49
2023/10/21 14:27:43;;;;;;;;;;;16.70;92.00;;;;;;4150210;28;19936;-58
2023/10/21 14:30:24;;;;;;;;;;;16.70;91.70;;;;;;4145804;28;19983;-57
2023/10/21 14:33:05;;;;;;;;;;;16.80;91.90;;;;;;4144658;28;20408;-51
2023/10/21 14:35:47;;;;;;;;;;;16.70;92.10;;;;;;4124468;28;19979;-49
2023/10/21 14:38:28;;;;;;;;;;;16.80;92.20;;;;;;4135773;28;20404;-50
2023/10/21 14:41:09;;;;;;;;;;;16.80;92.20;;;;;;4136314;28;20063;-50
2023/10/21 14:43:52;;;;;;;;;;;16.80;92.30;;;;;;4136935;28;19932;-49
2023/10/21 14:46:33;;;;;;;;;;;16.80;92.20;;;;;;4137535;28;20297;-50
2023/10/21 14:49:14;;;;;;;;;;;16.80;92.30;;;;;;4137928;28;19932;-51
2023/10/21 14:51:55;;;;;;;;;;;16.80;92.20;;;;;;4153351;28;20372;-49
2023/10/21 14:54:36;;;;;;;;;;;16.80;92.30;;;;;;4152089;28;19935;-52
2023/10/21 14:57:17;;;;;;;;;;;16.80;92.30;;;;;;4151742;28;20412;-51
2023/10/21 14:59:59;;;;;;;;;;;16.80;92.40;;;;;;4152997;28;19940;-49
2023/10/21 15:02:41;;;;;;;;;;;16.80;92.40;;;;;;4153428;28;19978;-49
2023/10/21 15:05:23;;;;;;;;;;;16.80;92.40;;;;;;4151598;28;19931;-50
2023/10/21 15:08:05;;;;;;;;;;;16.80;92.40;;;;;;4154049;28;19948;-53
2023/10/21 15:10:46;;;;;;;;;;;16.80;92.40;;;;;;4153424;28;20294;-49
2023/10/21 15:13:26;;;;;;;;;;;16.80;92.40;;;;;;4153373;28;19932;-52
2023/10/21 15:16:12;;;;;;;;;;;16.80;92.30;;;;;;4152313;28;20028;-51
2023/10/21 15:18:53;;;;;;;;;;;16.80;92.30;;;;;;4137463;28;19936;-47
2023/10/21 15:21:33;;;;;;;;;;;16.70;92.30;;;;;;4136835;28;19935;-50
2023/10/21 15:24:15;;;;;;;;;;;16.70;92.30;;;;;;4136003;28;19933;-50
2023/10/21 15:26:56;;;;;;;;;;;16.80;92.30;;;;;;4151537;28;19971;-48
2023/10/21 15:29:37;;;;;;;;;;;16.70;92.30;;;;;;4132067;28;19941;-48
2023/10/21 15:32:19;;;;;;;;;;;16.70;92.40;;;;;;4160251;28;20305;-56
2023/10/21 15:35:00;;;;;;;;;;;16.70;92.40;;;;;;4141274;28;19936;-55
2023/10/21 15:37:42;;;;;;;;;;;16.70;92.30;;;;;;4146761;28;20396;-56
2023/10/21 15:40:27;;;;;;;;;;;16.80;92.30;;;;;;4151976;28;19937;-56
2023/10/21 15:43:08;;;;;;;;;;;17.00;92.00;;;;;;4151299;28;19983;-56
2023/10/21 15:45:57;;;;;;;;;;;17.20;91.90;;;;;;4129318;28;19951;-56
2023/10/21 15:48:39;;;;;;;;;;;17.40;91.00;;;;;;4138016;28;19936;-56
2023/10/21 15:51:20;;;;;;;;;;;17.70;90.60;;;;;;4155973;28;20286;-50
2023/10/21 15:54:02;;;;;;;;;;;18.00;90.10;;;;;;4154719;28;20007;-48
2023/10/21 15:56:44;;;;;;;;;;;18.30;88.80;;;;;;4135220;28;20001;-48
2023/10/21 15:59:25;;;;;;;;;;;18.70;87.30;;;;;;4137537;28;19933;-50
2023/10/21 16:02:06;;;;;;;;;;;19.00;85.60;;;;;;4139376;28;19932;-49
2023/10/21 16:04:48;;;;;;;;;;;19.30;84.00;;;;;;4156367;28;19932;-48
2023/10/21 16:07:30;;;;;;;;;;;19.60;82.70;;;;;;4140828;28;20352;-47
2023/10/21 16:10:15;;;;;;;;;;;19.90;81.60;;;;;;4140611;28;20393;-56
2023/10/21 16:12:58;;;;;;;;;;;20.10;81.10;;;;;;4138603;28;20285;-50
2023/10/21 16:15:42;;;;;;;;;;;20.30;80.00;;;;;;4116919;28;20002;-49
2023/10/21 16:18:31;;;;;;;;;;;20.30;79.40;;;;;;4149538;28;20285;-49
2023/10/21 16:21:14;;;;;;;;;;;20.30;79.20;;;;;;4138276;28;19932;-50